Terminal Aerodrome Forecast
Issued by NWS

Home | Current Version | Previous Version | Text Only | Print | Product List | Glossary On
Versions: 1 2 3 4 5 6 7 8 9 10 11 12 13 14
976
FTUS42 KTBW 292320
TAFLAL
TAF
KLAL 292320Z 3000/3024 09006KT P6SM SCT080 BKN100
     FM300200 VRB04KT P6SM SCT060
     FM300900 14003KT 6SM BR FEW250
      TEMPO 3010/3013 4SM BR
     FM301300 16007KT P6SM FEW035 FEW250
     FM302100 22009KT P6SM FEW060 SCT250
      AMD NOT SKED 3002/3011=

USA.gov is the U.S. government's official web portal to all federal, state and local government web resources and services.